createdAt,value
2023-03-26T00:00:47.518Z,96.80
2023-03-26T00:01:47.517Z,96.49
2023-03-26T00:02:47.513Z,96.91
2023-03-26T00:03:47.461Z,96.49
2023-03-26T00:04:47.477Z,96.70
2023-03-26T00:05:47.535Z,96.70
2023-03-26T00:06:47.462Z,96.70
2023-03-26T00:07:47.423Z,96.49
2023-03-26T00:08:47.418Z,96.70
2023-03-26T00:09:47.395Z,96.80
2023-03-26T00:10:47.383Z,96.91
2023-03-26T00:11:47.422Z,96.80
2023-03-26T00:12:47.368Z,96.70
2023-03-26T00:13:47.372Z,97.52
2023-03-26T00:14:47.356Z,97.42
2023-03-26T00:15:47.334Z,97.42
2023-03-26T00:16:47.739Z,97.31
2023-03-26T00:17:47.376Z,97.31
2023-03-26T00:18:47.303Z,97.31
2023-03-26T00:19:47.297Z,97.42
2023-03-26T00:20:47.309Z,97.47
2023-03-26T00:21:47.265Z,97.36
2023-03-26T00:22:47.259Z,97.36
2023-03-26T00:23:47.248Z,97.31
2023-03-26T00:24:47.244Z,97.47
2023-03-26T00:25:49.147Z,97.36
2023-03-26T00:26:47.215Z,97.31
2023-03-26T00:27:47.200Z,97.67
2023-03-26T00:28:47.187Z,97.16
2023-03-26T00:29:47.205Z,97.11
2023-03-26T00:30:47.273Z,97.36
2023-03-26T00:31:47.156Z,97.16
2023-03-26T00:32:53.592Z,97.21
2023-03-26T00:33:47.136Z,97.42
2023-03-26T00:34:47.152Z,97.01
2023-03-26T00:35:47.190Z,96.91
2023-03-26T00:36:47.383Z,96.91
2023-03-26T00:37:47.099Z,97.31
2023-03-26T00:38:47.079Z,97.01
2023-03-26T00:39:47.071Z,97.05
2023-03-26T00:40:47.083Z,97.42
2023-03-26T00:41:47.047Z,97.36
2023-03-26T00:42:47.047Z,97.21
2023-03-26T00:43:47.023Z,98.08
2023-03-26T00:44:47.016Z,97.98
2023-03-26T00:45:47.075Z,97.73
2023-03-26T00:46:47.252Z,97.98
2023-03-26T00:47:47.052Z,97.98
2023-03-26T00:48:46.996Z,97.98
2023-03-26T00:49:46.980Z,97.63
2023-03-26T00:50:46.953Z,97.83
2023-03-26T00:51:46.962Z,97.63
2023-03-26T00:53:46.929Z,97.73
2023-03-26T00:54:46.908Z,97.63
2023-03-26T00:55:46.892Z,97.73
2023-03-26T00:56:46.977Z,97.52
2023-03-26T00:57:46.868Z,97.63
2023-03-26T00:58:46.872Z,97.63
2023-03-26T00:59:46.855Z,97.63
2023-03-26T01:00:46.956Z,97.73
2023-03-26T01:01:46.894Z,97.42
2023-03-26T01:02:46.922Z,97.63
2023-03-26T01:03:57.113Z,97.73
2023-03-26T01:04:47.947Z,97.42
2023-03-26T01:05:46.785Z,97.63
2023-03-26T01:06:46.851Z,97.52
2023-03-26T01:07:46.782Z,97.63
2023-03-26T01:08:46.786Z,97.52
2023-03-26T01:09:46.737Z,97.63
2023-03-26T01:10:46.742Z,97.83
2023-03-26T01:11:46.712Z,97.83
2023-03-26T01:12:46.704Z,97.83
2023-03-26T01:13:46.717Z,97.63
2023-03-26T01:14:46.676Z,97.31
2023-03-26T01:15:46.702Z,97.73
2023-03-26T01:16:46.699Z,97.31
2023-03-26T01:17:46.733Z,97.52
2023-03-26T01:18:46.656Z,97.63
2023-03-26T01:19:46.635Z,97.63
2023-03-26T01:20:46.625Z,97.73
2023-03-26T01:21:46.607Z,97.78
2023-03-26T01:22:46.769Z,97.58
2023-03-26T01:23:46.588Z,97.83
2023-03-26T01:24:46.566Z,97.89
2023-03-26T01:25:46.567Z,97.58
2023-03-26T01:26:46.550Z,97.63
2023-03-26T01:27:46.558Z,97.63
2023-03-26T01:28:46.555Z,97.42
2023-03-26T01:29:46.529Z,97.78
2023-03-26T01:30:46.506Z,97.58
2023-03-26T01:31:46.488Z,97.73
2023-03-26T01:32:46.581Z,97.68
2023-03-26T01:33:46.517Z,97.38
2023-03-26T01:34:46.476Z,97.58
2023-03-26T01:35:46.471Z,97.89
2023-03-26T01:36:46.448Z,98.14
2023-03-26T01:37:46.452Z,97.89
2023-03-26T01:38:46.417Z,97.58
2023-03-26T01:39:46.415Z,97.17
2023-03-26T01:40:46.405Z,97.06
2023-03-26T01:41:46.380Z,97.17
2023-03-26T01:42:46.390Z,97.38
2023-03-26T01:43:46.354Z,97.06
2023-03-26T01:44:46.379Z,97.06
2023-03-26T01:45:46.326Z,97.17
2023-03-26T01:46:46.391Z,97.27
2023-03-26T01:47:46.373Z,97.06
2023-03-26T01:48:46.326Z,97.06
2023-03-26T01:49:46.299Z,96.96
2023-03-26T01:50:46.298Z,97.06
2023-03-26T01:51:46.271Z,97.06
2023-03-26T01:52:46.332Z,97.06
2023-03-26T01:53:46.265Z,97.06
2023-03-26T01:54:46.235Z,97.58
2023-03-26T01:55:46.242Z,97.06
2023-03-26T01:56:46.240Z,97.06
2023-03-26T01:57:46.199Z,97.27
2023-03-26T01:58:46.209Z,97.38
2023-03-26T01:59:46.193Z,97.17
2023-03-26T02:00:46.171Z,97.27
2023-03-26T02:01:46.290Z,96.86
2023-03-26T02:02:46.338Z,96.86
2023-03-26T02:03:46.197Z,97.17
2023-03-26T02:04:46.259Z,97.06
2023-03-26T02:05:46.244Z,97.27
2023-03-26T02:06:46.261Z,97.38
2023-03-26T02:07:46.225Z,97.06
2023-03-26T02:08:46.143Z,97.38
2023-03-26T02:09:46.255Z,97.48
2023-03-26T02:10:46.194Z,97.38
2023-03-26T02:11:46.166Z,96.66
2023-03-26T02:12:46.116Z,96.66
2023-03-26T02:13:46.420Z,96.66
2023-03-26T02:14:46.142Z,95.68
2023-03-26T02:15:46.161Z,96.14
2023-03-26T02:16:46.210Z,96.24
2023-03-26T02:17:46.159Z,96.34
2023-03-26T02:18:46.030Z,96.34
2023-03-26T02:19:45.951Z,96.45
2023-03-26T02:20:45.944Z,96.34
2023-03-26T02:21:45.943Z,96.34
2023-03-26T02:22:46.178Z,96.24
2023-03-26T02:23:45.921Z,96.55
2023-03-26T02:24:45.908Z,96.45
2023-03-26T02:25:45.929Z,96.55
2023-03-26T02:26:45.884Z,96.24
2023-03-26T02:27:45.871Z,96.55
2023-03-26T02:28:45.853Z,96.45
2023-03-26T02:29:45.868Z,96.45
2023-03-26T02:30:45.897Z,96.34
2023-03-26T02:31:45.871Z,96.45
2023-03-26T02:32:45.830Z,96.45
2023-03-26T02:33:45.805Z,96.24
2023-03-26T02:34:45.825Z,95.93
2023-03-26T02:35:45.985Z,96.34
2023-03-26T02:36:45.798Z,96.34
2023-03-26T02:37:45.784Z,96.24
2023-03-26T02:38:45.797Z,96.24
2023-03-26T02:39:45.754Z,95.83
2023-03-26T02:40:45.720Z,96.55
2023-03-26T02:41:45.748Z,96.86
2023-03-26T02:42:45.695Z,96.75
2023-03-26T02:43:45.696Z,96.55
2023-03-26T02:44:45.677Z,96.34
2023-03-26T02:45:45.685Z,96.55
2023-03-26T02:46:45.686Z,96.66
2023-03-26T02:47:45.685Z,96.66
2023-03-26T02:48:45.637Z,96.86
2023-03-26T02:49:45.620Z,96.66
2023-03-26T02:50:45.624Z,96.55
2023-03-26T02:51:45.613Z,96.75
2023-03-26T02:52:45.595Z,96.75
2023-03-26T02:53:45.572Z,96.66
2023-03-26T02:54:45.581Z,97.06
2023-03-26T02:55:45.598Z,96.75
2023-03-26T02:56:45.595Z,96.86
2023-03-26T02:57:45.531Z,96.86
2023-03-26T02:58:45.536Z,96.86
2023-03-26T02:59:45.503Z,96.75
2023-03-26T03:00:45.525Z,97.06
2023-03-26T03:01:45.516Z,96.55
2023-03-26T03:02:45.547Z,97.27
2023-03-26T03:03:45.462Z,97.38
2023-03-26T03:04:45.472Z,97.27
2023-03-26T03:05:45.465Z,97.38
2023-03-26T03:06:45.431Z,97.48
2023-03-26T03:07:45.422Z,97.06
2023-03-26T03:08:45.410Z,97.48
2023-03-26T03:09:45.393Z,97.27
2023-03-26T03:10:45.427Z,97.27
2023-03-26T03:11:45.402Z,97.48
2023-03-26T03:12:45.368Z,97.48
2023-03-26T03:13:45.381Z,97.11
2023-03-26T03:14:45.386Z,96.91
2023-03-26T03:15:45.340Z,97.11
2023-03-26T03:16:45.345Z,97.52
2023-03-26T03:17:45.339Z,98.03
2023-03-26T03:18:45.323Z,97.78
2023-03-26T03:19:45.286Z,97.89
2023-03-26T03:20:45.287Z,97.89
2023-03-26T03:21:45.266Z,97.68
2023-03-26T03:22:45.252Z,97.89
2023-03-26T03:23:45.257Z,98.10
2023-03-26T03:24:45.238Z,97.78
2023-03-26T03:25:45.213Z,97.58
2023-03-26T03:26:45.248Z,97.58
2023-03-26T03:27:45.200Z,97.38
2023-03-26T03:28:45.261Z,97.27
2023-03-26T03:29:45.194Z,97.58
2023-03-26T03:30:45.275Z,97.58
2023-03-26T03:31:45.172Z,97.58
2023-03-26T03:32:45.195Z,97.48
2023-03-26T03:33:45.162Z,97.27
2023-03-26T03:34:45.121Z,97.68
2023-03-26T03:35:45.110Z,97.68
2023-03-26T03:36:45.100Z,97.78
2023-03-26T03:37:45.125Z,97.89
2023-03-26T03:38:45.086Z,97.73
2023-03-26T03:39:45.057Z,97.73
2023-03-26T03:40:45.087Z,97.68
2023-03-26T03:41:45.051Z,97.68
2023-03-26T03:42:45.080Z,97.89
2023-03-26T03:43:45.020Z,97.38
2023-03-26T03:44:45.009Z,97.38
2023-03-26T03:45:45.009Z,97.58
2023-03-26T03:46:45.018Z,97.78
2023-03-26T03:47:45.046Z,97.42
2023-03-26T03:48:44.967Z,97.73
2023-03-26T03:49:44.983Z,97.73
2023-03-26T03:50:44.945Z,97.73
2023-03-26T03:51:44.929Z,97.52
2023-03-26T03:52:44.919Z,97.73
2023-03-26T03:53:44.930Z,97.52
2023-03-26T03:54:44.922Z,97.94
2023-03-26T03:55:44.892Z,97.63
2023-03-26T03:56:44.909Z,97.42
2023-03-26T03:57:44.883Z,98.03
2023-03-26T03:58:44.884Z,97.11
2023-03-26T03:59:47.652Z,97.31
2023-03-26T04:00:44.836Z,97.52
2023-03-26T04:01:44.847Z,97.52
2023-03-26T04:02:44.892Z,97.31
2023-03-26T04:03:44.943Z,97.52
2023-03-26T04:04:44.835Z,97.52
2023-03-26T04:05:44.789Z,97.52
2023-03-26T04:06:44.786Z,97.31
2023-03-26T04:07:44.778Z,97.52
2023-03-26T04:08:44.742Z,97.36
2023-03-26T04:09:44.758Z,97.52
2023-03-26T04:10:44.718Z,97.67
2023-03-26T04:11:44.710Z,97.52
2023-03-26T04:12:44.726Z,97.63
2023-03-26T04:13:44.708Z,97.11
2023-03-26T04:14:44.690Z,97.11
2023-03-26T04:15:44.707Z,97.11
2023-03-26T04:16:44.653Z,97.42
2023-03-26T04:17:44.683Z,97.11
2023-03-26T04:18:44.627Z,97.01
2023-03-26T04:19:44.616Z,97.11
2023-03-26T04:20:44.622Z,97.42
2023-03-26T04:21:44.619Z,97.21
2023-03-26T04:22:44.603Z,97.31
2023-03-26T04:23:44.583Z,97.88
2023-03-26T04:24:44.562Z,97.47
2023-03-26T04:25:44.566Z,97.56
2023-03-26T04:26:44.542Z,97.67
2023-03-26T04:27:44.552Z,97.63
2023-03-26T04:28:44.524Z,97.98
2023-03-26T04:29:44.516Z,97.63
2023-03-26T04:30:44.515Z,97.88
2023-03-26T04:31:44.495Z,98.19
2023-03-26T04:32:44.519Z,98.19
2023-03-26T04:33:44.474Z,98.39
2023-03-26T04:34:44.458Z,98.50
2023-03-26T04:35:44.540Z,98.50
2023-03-26T04:36:44.431Z,98.91
2023-03-26T04:37:44.438Z,98.39
2023-03-26T04:38:44.408Z,98.60
2023-03-26T04:39:44.430Z,98.39
2023-03-26T04:40:44.394Z,98.39
2023-03-26T04:41:44.376Z,98.39
2023-03-26T04:42:44.397Z,98.50
2023-03-26T04:43:44.349Z,98.39
2023-03-26T04:44:44.369Z,98.50
2023-03-26T04:45:44.329Z,98.39
2023-03-26T04:46:44.367Z,98.39
2023-03-26T04:47:44.310Z,98.70
2023-03-26T04:48:44.295Z,98.70
2023-03-26T04:49:44.519Z,98.70
2023-03-26T04:50:44.283Z,98.80
2023-03-26T04:51:44.268Z,98.80
2023-03-26T04:52:45.483Z,98.80
2023-03-26T04:53:44.279Z,99.22
2023-03-26T04:54:44.243Z,99.11
2023-03-26T04:55:44.222Z,99.01
2023-03-26T04:56:44.258Z,99.01
2023-03-26T04:57:44.213Z,99.11
2023-03-26T04:58:44.206Z,99.01
2023-03-26T04:59:44.171Z,99.06
2023-03-26T05:00:44.201Z,99.01
2023-03-26T05:01:44.225Z,99.01
2023-03-26T05:02:44.197Z,99.01
2023-03-26T05:03:44.136Z,99.22
2023-03-26T05:04:44.148Z,99.11
2023-03-26T05:05:44.154Z,99.01
2023-03-26T05:06:44.101Z,98.70
2023-03-26T05:07:44.083Z,98.60
2023-03-26T05:08:44.109Z,98.70
2023-03-26T05:09:44.054Z,98.70
2023-03-26T05:10:44.050Z,98.85
2023-03-26T05:11:44.070Z,98.70
2023-03-26T05:12:44.033Z,98.39
2023-03-26T05:13:44.014Z,98.44
2023-03-26T05:14:44.026Z,98.39
2023-03-26T05:15:43.992Z,98.39
2023-03-26T05:16:44.046Z,98.39
2023-03-26T05:17:44.025Z,98.39
2023-03-26T05:18:43.997Z,98.50
2023-03-26T05:19:43.950Z,98.39
2023-03-26T05:20:43.962Z,98.39
2023-03-26T05:21:43.925Z,98.50
2023-03-26T05:22:43.914Z,98.60
2023-03-26T05:23:43.912Z,98.60
2023-03-26T05:24:43.892Z,98.50
2023-03-26T05:25:43.903Z,98.50
2023-03-26T05:26:43.894Z,98.60
2023-03-26T05:27:43.857Z,98.29
2023-03-26T05:28:43.847Z,98.60
2023-03-26T05:29:43.870Z,98.54
2023-03-26T05:30:43.852Z,98.50
2023-03-26T05:31:43.811Z,98.60
2023-03-26T05:32:43.897Z,98.50
2023-03-26T05:33:43.924Z,98.39
2023-03-26T05:34:43.798Z,98.50
2023-03-26T05:35:43.830Z,98.39
2023-03-26T05:36:43.760Z,98.60
2023-03-26T05:37:43.749Z,98.50
2023-03-26T05:38:43.759Z,98.80
2023-03-26T05:39:43.725Z,98.70
2023-03-26T05:40:43.717Z,98.45
2023-03-26T05:41:43.702Z,98.39
2023-03-26T05:42:43.698Z,98.60
2023-03-26T05:43:43.678Z,98.60
2023-03-26T05:44:43.701Z,98.39
2023-03-26T05:45:43.695Z,98.08
2023-03-26T05:46:43.659Z,98.08
2023-03-26T05:47:43.702Z,98.08
2023-03-26T05:48:43.627Z,97.88
2023-03-26T05:49:43.649Z,98.03
2023-03-26T05:50:43.628Z,98.14
2023-03-26T05:51:43.595Z,98.14
2023-03-26T05:52:43.676Z,98.10
2023-03-26T05:53:43.575Z,98.03
2023-03-26T05:54:43.576Z,98.10
2023-03-26T05:55:43.549Z,98.10
2023-03-26T05:56:43.606Z,97.89
2023-03-26T05:57:43.567Z,97.48
2023-03-26T05:58:43.524Z,97.78
2023-03-26T05:59:43.509Z,97.27
2023-03-26T06:00:43.489Z,97.78
2023-03-26T06:01:43.476Z,97.58
2023-03-26T06:02:43.497Z,97.58
2023-03-26T06:03:43.537Z,97.89
2023-03-26T06:04:43.561Z,97.89
2023-03-26T06:05:43.434Z,97.17
2023-03-26T06:06:43.455Z,97.17
2023-03-26T06:07:43.409Z,97.02
2023-03-26T06:08:43.425Z,97.13
2023-03-26T06:09:43.389Z,97.13
2023-03-26T06:10:43.379Z,97.33
2023-03-26T06:11:43.375Z,97.33
2023-03-26T06:12:43.354Z,97.43
2023-03-26T06:13:43.365Z,97.02
2023-03-26T06:14:43.340Z,97.33
2023-03-26T06:15:43.337Z,97.33
2023-03-26T06:16:43.389Z,97.28
2023-03-26T06:17:43.338Z,97.28
2023-03-26T06:18:43.352Z,97.18
2023-03-26T06:19:43.295Z,97.33
2023-03-26T06:20:43.264Z,97.43
2023-03-26T06:21:43.262Z,97.13
2023-03-26T06:22:43.276Z,96.81
2023-03-26T06:23:43.234Z,96.77
2023-03-26T06:24:43.243Z,96.81
2023-03-26T06:25:43.216Z,96.56
2023-03-26T06:26:43.199Z,96.67
2023-03-26T06:27:43.227Z,96.77
2023-03-26T06:28:43.205Z,96.97
2023-03-26T06:29:43.208Z,96.56
2023-03-26T06:30:43.153Z,96.46
2023-03-26T06:31:43.181Z,96.77
2023-03-26T06:32:43.178Z,96.00
2023-03-26T06:33:43.129Z,96.42
2023-03-26T06:34:43.150Z,95.84
2023-03-26T06:35:43.161Z,96.15
2023-03-26T06:36:43.092Z,95.28
2023-03-26T06:37:43.095Z,95.18
2023-03-26T06:38:43.084Z,95.49
2023-03-26T06:39:43.082Z,95.08
2023-03-26T06:40:43.080Z,95.18
2023-03-26T06:41:43.071Z,95.28
2023-03-26T06:43:08.174Z,94.56
2023-03-26T06:43:44.034Z,94.87
2023-03-26T06:44:43.004Z,94.77
2023-03-26T06:45:42.998Z,95.18
2023-03-26T06:46:43.028Z,94.87
2023-03-26T06:47:43.031Z,94.98
2023-03-26T06:48:42.982Z,95.08
2023-03-26T06:49:44.918Z,95.18
2023-03-26T06:50:42.943Z,94.46
2023-03-26T06:51:42.948Z,94.56
2023-03-26T06:52:42.915Z,94.83
2023-03-26T06:53:42.911Z,94.83
2023-03-26T06:54:42.927Z,94.42
2023-03-26T06:55:42.877Z,94.52
2023-03-26T06:56:42.912Z,95.14
2023-03-26T06:57:42.869Z,95.24
2023-03-26T06:58:42.883Z,95.24
2023-03-26T06:59:42.844Z,94.73
2023-03-26T07:00:42.906Z,94.52
2023-03-26T07:01:42.849Z,94.68
2023-03-26T07:02:42.901Z,94.48
2023-03-26T07:03:42.826Z,94.68
2023-03-26T07:04:42.809Z,94.58
2023-03-26T07:05:42.768Z,94.58
2023-03-26T07:06:42.778Z,94.11
2023-03-26T07:07:46.396Z,94.21
2023-03-26T07:08:42.763Z,93.96
2023-03-26T07:09:42.726Z,93.86
2023-03-26T07:10:42.731Z,93.76
2023-03-26T07:11:42.725Z,93.44
2023-03-26T07:12:42.763Z,93.76
2023-03-26T07:13:42.697Z,94.17
2023-03-26T07:14:42.674Z,93.76
2023-03-26T07:15:42.665Z,93.86
2023-03-26T07:16:42.720Z,94.07
2023-03-26T07:17:42.664Z,93.96
2023-03-26T07:18:42.657Z,93.86
2023-03-26T07:19:42.622Z,94.37
2023-03-26T07:20:42.637Z,93.86
2023-03-26T07:21:42.597Z,93.86
2023-03-26T07:22:42.662Z,93.86
2023-03-26T07:23:42.573Z,94.37
2023-03-26T07:24:42.558Z,93.86
2023-03-26T07:25:42.583Z,94.27
2023-03-26T07:26:42.563Z,94.17
2023-03-26T07:27:42.528Z,93.86
2023-03-26T07:28:42.531Z,93.86
2023-03-26T07:29:43.513Z,94.07
2023-03-26T07:30:42.527Z,93.76
2023-03-26T07:31:42.630Z,93.86
2023-03-26T07:32:42.527Z,93.86
2023-03-26T07:33:42.464Z,94.07
2023-03-26T07:34:42.454Z,94.17
2023-03-26T07:35:42.478Z,94.78
2023-03-26T07:36:42.438Z,94.58
2023-03-26T07:37:42.450Z,94.48
2023-03-26T07:38:42.409Z,94.48
2023-03-26T07:39:42.396Z,94.78
2023-03-26T07:40:42.402Z,94.58
2023-03-26T07:41:42.409Z,94.48
2023-03-26T07:42:42.378Z,94.68
2023-03-26T07:43:42.360Z,95.09
2023-03-26T07:44:42.341Z,94.78
2023-03-26T07:45:42.345Z,94.64
2023-03-26T07:46:42.347Z,94.84
2023-03-26T07:47:42.391Z,94.64
2023-03-26T07:48:42.295Z,95.15
2023-03-26T07:49:42.300Z,95.25
2023-03-26T07:50:42.303Z,95.05
2023-03-26T07:51:42.280Z,94.84
2023-03-26T07:52:42.246Z,95.05
2023-03-26T07:53:42.272Z,95.15
2023-03-26T07:54:42.230Z,95.15
2023-03-26T07:55:42.228Z,94.54
2023-03-26T07:56:42.253Z,94.74
2023-03-26T07:57:42.265Z,94.59
2023-03-26T07:58:42.205Z,94.74
2023-03-26T07:59:42.176Z,94.64
2023-03-26T08:00:42.160Z,94.84
2023-03-26T08:01:42.159Z,94.49
2023-03-26T08:02:42.182Z,95.21
2023-03-26T08:03:42.236Z,94.54
2023-03-26T08:04:42.255Z,94.43
2023-03-26T08:05:42.110Z,94.70
2023-03-26T08:06:42.165Z,95.21
2023-03-26T08:07:42.151Z,94.90
2023-03-26T08:08:42.296Z,94.34
2023-03-26T08:09:42.090Z,94.55
2023-03-26T08:10:42.306Z,94.85
2023-03-26T08:11:42.033Z,94.76
2023-03-26T08:12:42.212Z,94.61
2023-03-26T08:13:42.008Z,94.40
2023-03-26T08:14:42.045Z,94.61
2023-03-26T08:15:42.005Z,94.30
2023-03-26T08:16:41.985Z,94.46
2023-03-26T08:17:42.031Z,93.64
2023-03-26T08:18:41.952Z,93.74
2023-03-26T08:19:41.950Z,92.72
2023-03-26T08:20:41.947Z,92.98
2023-03-26T08:21:41.946Z,92.68
2023-03-26T08:22:41.930Z,92.98
2023-03-26T08:23:50.768Z,92.98
2023-03-26T08:24:42.883Z,92.78
2023-03-26T08:25:41.883Z,92.57
2023-03-26T08:26:41.865Z,92.27
2023-03-26T08:27:41.862Z,91.71
2023-03-26T08:28:41.872Z,92.53
2023-03-26T08:29:42.023Z,91.71
2023-03-26T08:30:41.878Z,92.02
2023-03-26T08:31:41.818Z,91.30
2023-03-26T08:32:41.845Z,89.92
2023-03-26T08:33:41.795Z,90.34
2023-03-26T08:34:41.771Z,90.13
2023-03-26T08:35:41.826Z,90.34
2023-03-26T08:36:41.754Z,89.83
2023-03-26T08:37:41.745Z,88.64
2023-03-26T08:38:41.743Z,88.08
2023-03-26T08:39:41.762Z,89.72
2023-03-26T08:40:41.705Z,89.92
2023-03-26T08:41:41.693Z,90.30
2023-03-26T08:42:41.708Z,90.30
2023-03-26T08:43:41.683Z,90.44
2023-03-26T08:44:41.667Z,90.44
2023-03-26T08:45:41.652Z,90.03
2023-03-26T08:46:41.764Z,89.31
2023-03-26T08:47:41.673Z,88.18
2023-03-26T08:48:41.622Z,88.18
2023-03-26T08:49:41.609Z,87.98
2023-03-26T08:50:41.617Z,88.59
2023-03-26T08:51:41.581Z,88.65
2023-03-26T08:52:41.576Z,89.37
2023-03-26T08:53:41.583Z,88.04
2023-03-26T08:54:41.550Z,87.84
2023-03-26T08:55:41.546Z,87.73
2023-03-26T08:56:41.587Z,87.32
2023-03-26T08:57:41.526Z,88.65
2023-03-26T08:58:41.507Z,87.70
2023-03-26T08:59:41.504Z,87.18
2023-03-26T09:00:41.486Z,86.77
2023-03-26T09:01:41.558Z,86.26
2023-03-26T09:02:41.507Z,85.34
2023-03-26T09:03:41.488Z,85.24
2023-03-26T09:04:41.473Z,86.53
2023-03-26T09:05:41.428Z,86.53
2023-03-26T09:06:41.438Z,84.99
2023-03-26T09:07:41.425Z,85.20
2023-03-26T09:08:54.326Z,86.12
2023-03-26T09:09:42.382Z,85.88
2023-03-26T09:10:41.375Z,85.97
2023-03-26T09:11:41.384Z,85.36
2023-03-26T09:12:41.376Z,86.04
2023-03-26T09:13:41.376Z,84.34
2023-03-26T09:14:41.327Z,85.16
2023-03-26T09:15:41.330Z,84.55
2023-03-26T09:16:41.427Z,84.61
2023-03-26T09:17:41.352Z,84.41
2023-03-26T09:18:41.328Z,83.69
2023-03-26T09:19:41.277Z,81.85
2023-03-26T09:20:41.289Z,82.53
2023-03-26T09:21:41.252Z,82.63
2023-03-26T09:22:41.254Z,82.83
2023-03-26T09:23:41.248Z,82.83
2023-03-26T09:24:41.224Z,83.71
2023-03-26T09:25:41.209Z,82.59
2023-03-26T09:26:41.198Z,82.28
2023-03-26T09:27:41.204Z,81.37
2023-03-26T09:28:41.194Z,82.49
2023-03-26T09:29:41.168Z,82.89
2023-03-26T09:30:41.156Z,82.24
2023-03-26T09:31:41.204Z,81.16
2023-03-26T09:32:41.174Z,79.97
2023-03-26T09:33:41.156Z,81.30
2023-03-26T09:34:41.131Z,82.18
2023-03-26T09:35:41.153Z,83.00
2023-03-26T09:36:41.093Z,82.59
2023-03-26T09:37:57.469Z,80.85
2023-03-26T09:38:42.085Z,82.08
2023-03-26T09:39:41.056Z,80.99
2023-03-26T09:40:41.058Z,81.37
2023-03-26T09:41:42.795Z,81.37
2023-03-26T09:42:41.058Z,80.75
2023-03-26T09:43:41.011Z,78.13
2023-03-26T09:44:40.999Z,79.32
2023-03-26T09:45:41.060Z,81.05
2023-03-26T09:46:40.997Z,81.73
2023-03-26T09:47:40.985Z,80.71
2023-03-26T09:48:40.967Z,79.93
2023-03-26T09:49:41.010Z,80.75
2023-03-26T09:50:41.091Z,80.44
2023-03-26T09:51:40.937Z,80.96
2023-03-26T09:52:40.919Z,80.04
2023-03-26T09:53:40.919Z,81.37
2023-03-26T09:54:40.886Z,80.24
2023-03-26T09:55:40.915Z,79.43
2023-03-26T09:56:40.895Z,79.93
2023-03-26T09:57:40.920Z,79.69
2023-03-26T09:58:40.853Z,80.75
2023-03-26T09:59:40.838Z,79.43
2023-03-26T10:00:40.894Z,79.16
2023-03-26T10:01:40.866Z,78.95
2023-03-26T10:02:45.877Z,79.22
2023-03-26T10:03:41.809Z,78.81
2023-03-26T10:04:40.795Z,80.55
2023-03-26T10:05:40.763Z,79.66
2023-03-26T10:06:40.779Z,78.95
2023-03-26T10:07:40.770Z,79.46
2023-03-26T10:08:40.730Z,79.97
2023-03-26T10:09:40.737Z,80.18
2023-03-26T10:10:40.705Z,80.28
2023-03-26T10:11:40.717Z,80.89
2023-03-26T10:12:40.685Z,80.01
2023-03-26T10:13:40.676Z,80.01
2023-03-26T10:14:40.681Z,80.62
2023-03-26T10:15:40.661Z,81.03
2023-03-26T10:16:40.669Z,80.35
2023-03-26T10:17:40.682Z,80.15
2023-03-26T10:18:40.647Z,81.48
2023-03-26T10:19:40.641Z,82.81
2023-03-26T10:20:40.619Z,82.91
2023-03-26T10:21:40.586Z,81.85
2023-03-26T10:22:40.585Z,82.05
2023-03-26T10:23:40.573Z,80.76
2023-03-26T10:24:40.594Z,81.03
2023-03-26T10:25:40.564Z,80.93
2023-03-26T10:26:40.578Z,81.95
2023-03-26T10:27:40.520Z,82.36
2023-03-26T10:28:40.666Z,80.97
2023-03-26T10:29:40.529Z,81.24
2023-03-26T10:30:40.513Z,81.03
2023-03-26T10:31:40.476Z,81.65
2023-03-26T10:32:40.530Z,80.66
2023-03-26T10:33:40.472Z,81.27
2023-03-26T10:34:40.437Z,82.09
2023-03-26T10:35:40.462Z,82.15
2023-03-26T10:36:40.414Z,82.56
2023-03-26T10:37:40.426Z,83.93
2023-03-26T10:38:40.425Z,83.62
2023-03-26T10:39:41.677Z,84.00
2023-03-26T10:40:40.415Z,84.75
2023-03-26T10:41:40.362Z,85.36
2023-03-26T10:42:40.355Z,86.08
2023-03-26T10:43:40.383Z,85.88
2023-03-26T10:44:40.322Z,86.02
2023-03-26T10:45:40.310Z,86.12
2023-03-26T10:46:40.350Z,86.22
2023-03-26T10:47:40.332Z,87.24
2023-03-26T10:48:40.296Z,87.14
2023-03-26T10:49:40.295Z,88.51
2023-03-26T10:50:40.252Z,88.62
2023-03-26T10:51:40.243Z,88.71
2023-03-26T10:52:40.256Z,88.45
2023-03-26T10:53:40.255Z,88.56
2023-03-26T10:54:40.255Z,89.43
2023-03-26T10:55:40.211Z,90.50
2023-03-26T10:56:40.251Z,90.19
2023-03-26T10:57:40.208Z,90.30
2023-03-26T10:58:48.508Z,90.39
2023-03-26T10:59:41.162Z,91.22
2023-03-26T11:00:40.156Z,91.52
2023-03-26T11:01:40.159Z,90.91
2023-03-26T11:02:40.168Z,90.91
2023-03-26T11:03:40.132Z,91.31
2023-03-26T11:04:40.097Z,90.70
2023-03-26T11:05:40.139Z,90.60
2023-03-26T11:06:40.089Z,91.01
2023-03-26T11:07:40.627Z,91.48
2023-03-26T11:08:40.080Z,91.99
2023-03-26T11:09:40.053Z,91.83
2023-03-26T11:10:40.258Z,91.63
2023-03-26T11:11:40.036Z,91.11
2023-03-26T11:12:40.047Z,90.09
2023-03-26T11:13:40.003Z,89.98
2023-03-26T11:14:39.989Z,89.17
2023-03-26T11:15:40.037Z,88.49
2023-03-26T11:16:39.979Z,88.80
2023-03-26T11:17:41.639Z,87.82
2023-03-26T11:18:39.954Z,87.82
2023-03-26T11:19:39.944Z,86.79
2023-03-26T11:20:39.970Z,87.41
2023-03-26T11:21:39.944Z,88.53
2023-03-26T11:22:39.904Z,88.23
2023-03-26T11:23:39.979Z,88.74
2023-03-26T11:24:39.914Z,88.43
2023-03-26T11:25:39.876Z,88.53
2023-03-26T11:26:39.892Z,89.45
2023-03-26T11:27:39.853Z,89.50
2023-03-26T11:28:39.839Z,89.81
2023-03-26T11:29:39.855Z,89.90
2023-03-26T11:30:39.821Z,89.60
2023-03-26T11:31:39.832Z,89.60
2023-03-26T11:32:39.870Z,90.01
2023-03-26T11:33:45.565Z,90.22
2023-03-26T11:34:40.812Z,90.52
2023-03-26T11:35:41.729Z,89.90
2023-03-26T11:36:39.768Z,90.42
2023-03-26T11:37:39.741Z,90.22
2023-03-26T11:38:39.727Z,89.90
2023-03-26T11:39:39.733Z,90.22
2023-03-26T11:40:39.709Z,90.83
2023-03-26T11:41:39.747Z,90.67
2023-03-26T11:42:39.699Z,90.22
2023-03-26T11:43:39.675Z,90.52
2023-03-26T11:44:39.678Z,89.50
2023-03-26T11:45:39.663Z,89.81
2023-03-26T11:46:39.720Z,90.56
2023-03-26T11:47:39.722Z,90.46
2023-03-26T11:48:39.629Z,90.50
2023-03-26T11:49:40.284Z,90.50
2023-03-26T11:50:39.593Z,90.81
2023-03-26T11:51:39.623Z,91.33
2023-03-26T11:52:39.592Z,91.63
2023-03-26T11:53:39.621Z,91.88
2023-03-26T11:54:39.559Z,92.70
2023-03-26T11:55:39.537Z,92.60
2023-03-26T11:56:39.551Z,93.32
2023-03-26T11:57:39.559Z,93.46
2023-03-26T11:58:39.540Z,92.91
2023-03-26T11:59:53.344Z,93.01
2023-03-26T12:00:40.480Z,93.67
2023-03-26T12:01:39.494Z,93.67
2023-03-26T12:02:39.546Z,93.57
2023-03-26T12:03:39.467Z,93.87
2023-03-26T12:04:39.526Z,94.18
2023-03-26T12:05:39.443Z,93.57
2023-03-26T12:06:39.412Z,94.18
2023-03-26T12:07:39.442Z,93.87
2023-03-26T12:08:39.388Z,94.08
2023-03-26T12:09:39.378Z,94.59
2023-03-26T12:10:39.387Z,94.39
2023-03-26T12:11:39.354Z,94.59
2023-03-26T12:12:39.341Z,95.01
2023-03-26T12:13:39.330Z,94.39
2023-03-26T12:14:39.355Z,93.87
2023-03-26T12:15:39.335Z,93.98
2023-03-26T12:16:39.343Z,93.67
2023-03-26T12:17:39.288Z,93.67
2023-03-26T12:18:39.275Z,93.83
2023-03-26T12:19:39.283Z,93.52
2023-03-26T12:20:39.256Z,93.87
2023-03-26T12:21:39.257Z,94.34
2023-03-26T12:22:40.273Z,94.04
2023-03-26T12:23:39.221Z,94.65
2023-03-26T12:24:39.204Z,94.34
2023-03-26T12:25:39.280Z,94.96
2023-03-26T12:26:39.203Z,94.45
2023-03-26T12:27:39.173Z,94.65
2023-03-26T12:28:40.165Z,94.65
2023-03-26T12:29:39.180Z,94.80
2023-03-26T12:30:39.163Z,94.80
2023-03-26T12:31:39.197Z,94.65
2023-03-26T12:32:46.221Z,94.90
2023-03-26T12:33:40.094Z,95.10
2023-03-26T12:34:39.110Z,94.80
2023-03-26T12:35:39.132Z,95.01
2023-03-26T12:36:39.237Z,95.52
2023-03-26T12:37:39.057Z,95.62
2023-03-26T12:38:39.066Z,95.52
2023-03-26T12:40:08.863Z,95.72
2023-03-26T12:40:39.051Z,96.03
2023-03-26T12:42:36.610Z,96.08
2023-03-26T12:44:50.582Z,95.83
2023-03-26T12:44:50.880Z,95.72
2023-03-26T12:44:51.110Z,95.83
2023-03-26T12:45:39.978Z,95.97
2023-03-26T12:47:56.927Z,95.67
2023-03-26T12:47:59.421Z,95.67
2023-03-26T12:48:40.021Z,95.93
2023-03-26T12:49:38.929Z,96.03
2023-03-26T12:50:38.915Z,96.08
2023-03-26T12:51:38.902Z,96.14
2023-03-26T12:52:38.918Z,95.83
2023-03-26T12:53:38.874Z,96.03